sensor_id;sensor_type;location;lat;lon;timestamp;pressure;altitude;pressure_sealevel;temperature;humidity
5883;BME280;2967;51.488;6.618;2022-12-10T00:00:29;100494.59;;;1.80;100.00
5883;BME280;2967;51.488;6.618;2022-12-10T00:05:35;100498.25;;;1.75;100.00
5883;BME280;2967;51.488;6.618;2022-12-10T00:10:38;100543.41;;;2.01;100.00
5883;BME280;2967;51.488;6.618;2022-12-10T00:15:41;100538.06;;;2.04;100.00
5883;BME280;2967;51.488;6.618;2022-12-10T00:20:45;100533.78;;;2.03;100.00
5883;BME280;2967;51.488;6.618;2022-12-10T00:25:48;100538.75;;;2.11;100.00
5883;BME280;2967;51.488;6.618;2022-12-10T00:30:50;100544.13;;;2.06;100.00
5883;BME280;2967;51.488;6.618;2022-12-10T00:35:54;100553.94;;;1.98;100.00
5883;BME280;2967;51.488;6.618;2022-12-10T00:40:57;100533.88;;;2.00;100.00
5883;BME280;2967;51.488;6.618;2022-12-10T00:46:00;100528.50;;;1.80;100.00
5883;BME280;2967;51.488;6.618;2022-12-10T00:51:07;100445.25;;;1.50;100.00
5883;BME280;2967;51.488;6.618;2022-12-10T00:56:12;100551.13;;;2.04;100.00
5883;BME280;2967;51.488;6.618;2022-12-10T01:01:18;100559.84;;;2.03;100.00
5883;BME280;2967;51.488;6.618;2022-12-10T01:06:24;100552.25;;;1.97;100.00
5883;BME280;2967;51.488;6.618;2022-12-10T01:11:29;100543.34;;;1.78;100.00
5883;BME280;2967;51.488;6.618;2022-12-10T01:16:32;100528.94;;;1.67;100.00
5883;BME280;2967;51.488;6.618;2022-12-10T01:21:36;100555.25;;;1.85;100.00
5883;BME280;2967;51.488;6.618;2022-12-10T01:26:39;100563.19;;;1.56;100.00
5883;BME280;2967;51.488;6.618;2022-12-10T01:31:42;100551.25;;;1.49;100.00
5883;BME280;2967;51.488;6.618;2022-12-10T01:36:49;100567.25;;;1.65;100.00
5883;BME280;2967;51.488;6.618;2022-12-10T01:41:54;100477.09;;;1.06;100.00
5883;BME280;2967;51.488;6.618;2022-12-10T01:46:59;100578.91;;;1.53;100.00
5883;BME280;2967;51.488;6.618;2022-12-10T01:52:08;100590.44;;;1.46;100.00
5883;BME280;2967;51.488;6.618;2022-12-10T01:57:13;100587.91;;;1.43;100.00
5883;BME280;2967;51.488;6.618;2022-12-10T02:02:22;100587.84;;;1.46;100.00
5883;BME280;2967;51.488;6.618;2022-12-10T02:07:33;100597.28;;;1.49;100.00
5883;BME280;2967;51.488;6.618;2022-12-10T02:12:45;100604.59;;;1.38;100.00
5883;BME280;2967;51.488;6.618;2022-12-10T02:17:51;100601.56;;;1.51;100.00
5883;BME280;2967;51.488;6.618;2022-12-10T02:22:59;100599.34;;;1.39;100.00
5883;BME280;2967;51.488;6.618;2022-12-10T02:28:10;100595.19;;;1.32;100.00
5883;BME280;2967;51.488;6.618;2022-12-10T02:33:18;100592.69;;;1.29;100.00
5883;BME280;2967;51.488;6.618;2022-12-10T02:38:24;100588.25;;;1.33;100.00
5883;BME280;2967;51.488;6.618;2022-12-10T02:43:32;100584.25;;;1.21;100.00
5883;BME280;2967;51.488;6.618;2022-12-10T02:48:39;100582.41;;;1.25;100.00
5883;BME280;2967;51.488;6.618;2022-12-10T02:53:42;100584.94;;;0.99;100.00
5883;BME280;2967;51.488;6.618;2022-12-10T02:58:53;100594.25;;;1.07;100.00
5883;BME280;2967;51.488;6.618;2022-12-10T03:04:01;100600.53;;;1.00;100.00
5883;BME280;2967;51.488;6.618;2022-12-10T03:09:09;100608.84;;;1.13;100.00
5883;BME280;2967;51.488;6.618;2022-12-10T03:14:19;100600.81;;;0.90;100.00
5883;BME280;2967;51.488;6.618;2022-12-10T03:19:30;100606.00;;;0.91;100.00
5883;BME280;2967;51.488;6.618;2022-12-10T03:24:35;100501.81;;;0.35;100.00
5883;BME280;2967;51.488;6.618;2022-12-10T03:29:42;100599.97;;;0.89;100.00
5883;BME280;2967;51.488;6.618;2022-12-10T03:34:49;100599.31;;;0.83;100.00
5883;BME280;2967;51.488;6.618;2022-12-10T03:39:53;100605.47;;;0.79;100.00
5883;BME280;2967;51.488;6.618;2022-12-10T03:44:55;100604.66;;;0.77;100.00
5883;BME280;2967;51.488;6.618;2022-12-10T03:50:00;100587.50;;;0.70;100.00
5883;BME280;2967;51.488;6.618;2022-12-10T03:55:03;100593.72;;;0.66;100.00
5883;BME280;2967;51.488;6.618;2022-12-10T04:00:07;100620.25;;;0.78;100.00
5883;BME280;2967;51.488;6.618;2022-12-10T04:05:14;100607.34;;;0.75;100.00
5883;BME280;2967;51.488;6.618;2022-12-10T04:10:17;100605.44;;;0.80;100.00
5883;BME280;2967;51.488;6.618;2022-12-10T04:15:20;100615.59;;;0.89;100.00
5883;BME280;2967;51.488;6.618;2022-12-10T04:20:41;100615.34;;;0.98;100.00
5883;BME280;2967;51.488;6.618;2022-12-10T04:26:02;100514.66;;;0.41;100.00
5883;BME280;2967;51.488;6.618;2022-12-10T04:31:18;100610.50;;;0.86;100.00
5883;BME280;2967;51.488;6.618;2022-12-10T04:36:22;100601.13;;;0.79;100.00
5883;BME280;2967;51.488;6.618;2022-12-10T04:41:25;100612.56;;;0.74;100.00
5883;BME280;2967;51.488;6.618;2022-12-10T04:46:29;100602.31;;;0.68;100.00
5883;BME280;2967;51.488;6.618;2022-12-10T04:51:33;100601.75;;;0.58;100.00
5883;BME280;2967;51.488;6.618;2022-12-10T04:56:36;100608.00;;;0.51;100.00
5883;BME280;2967;51.488;6.618;2022-12-10T05:01:39;100607.38;;;0.74;100.00
5883;BME280;2967;51.488;6.618;2022-12-10T05:06:47;100614.56;;;0.64;100.00
5883;BME280;2967;51.488;6.618;2022-12-10T05:11:49;100623.03;;;0.72;100.00
5883;BME280;2967;51.488;6.618;2022-12-10T05:16:52;100599.84;;;0.63;100.00
5883;BME280;2967;51.488;6.618;2022-12-10T05:21:56;100623.56;;;0.83;100.00
5883;BME280;2967;51.488;6.618;2022-12-10T05:27:16;100624.16;;;0.62;100.00
5883;BME280;2967;51.488;6.618;2022-12-10T05:32:18;100594.19;;;0.49;100.00
5883;BME280;2967;51.488;6.618;2022-12-10T05:37:22;100627.41;;;0.70;100.00
5883;BME280;2967;51.488;6.618;2022-12-10T05:42:25;100626.84;;;0.90;100.00
5883;BME280;2967;51.488;6.618;2022-12-10T05:47:27;100632.06;;;0.90;100.00
5883;BME280;2967;51.488;6.618;2022-12-10T05:52:31;100634.09;;;0.79;100.00
5883;BME280;2967;51.488;6.618;2022-12-10T05:57:35;100518.13;;;0.09;100.00
5883;BME280;2967;51.488;6.618;2022-12-10T06:02:37;100644.28;;;0.57;100.00
5883;BME280;2967;51.488;6.618;2022-12-10T06:07:42;100644.34;;;0.54;100.00
5883;BME280;2967;51.488;6.618;2022-12-10T06:12:45;100651.09;;;0.61;100.00
5883;BME280;2967;51.488;6.618;2022-12-10T06:17:47;100661.34;;;0.67;100.00
5883;BME280;2967;51.488;6.618;2022-12-10T06:22:51;100656.31;;;0.60;100.00
5883;BME280;2967;51.488;6.618;2022-12-10T06:27:55;100660.69;;;0.59;100.00
5883;BME280;2967;51.488;6.618;2022-12-10T06:32:57;100659.44;;;0.74;100.00
5883;BME280;2967;51.488;6.618;2022-12-10T06:38:01;100668.66;;;0.85;100.00
5883;BME280;2967;51.488;6.618;2022-12-10T06:43:04;100668.69;;;0.84;100.00
5883;BME280;2967;51.488;6.618;2022-12-10T06:48:07;100667.06;;;0.80;100.00
5883;BME280;2967;51.488;6.618;2022-12-10T06:53:11;100678.00;;;0.92;100.00
5883;BME280;2967;51.488;6.618;2022-12-10T06:58:14;100582.53;;;0.32;100.00
5883;BME280;2967;51.488;6.618;2022-12-10T07:03:16;100677.84;;;0.98;100.00
5883;BME280;2967;51.488;6.618;2022-12-10T07:08:20;100685.41;;;1.07;100.00
5883;BME280;2967;51.488;6.618;2022-12-10T07:13:25;100686.44;;;1.00;100.00
5883;BME280;2967;51.488;6.618;2022-12-10T07:18:31;100680.34;;;0.71;100.00
5883;BME280;2967;51.488;6.618;2022-12-10T07:23:35;100692.94;;;0.86;100.00
5883;BME280;2967;51.488;6.618;2022-12-10T07:28:38;100695.41;;;0.90;100.00
5883;BME280;2967;51.488;6.618;2022-12-10T07:33:53;100694.13;;;1.05;100.00
5883;BME280;2967;51.488;6.618;2022-12-10T07:38:58;100705.28;;;0.78;100.00
5883;BME280;2967;51.488;6.618;2022-12-10T07:44:01;100706.38;;;1.01;100.00
5883;BME280;2967;51.488;6.618;2022-12-10T07:49:04;100709.19;;;0.95;100.00
5883;BME280;2967;51.488;6.618;2022-12-10T07:54:08;100717.59;;;1.03;100.00
5883;BME280;2967;51.488;6.618;2022-12-10T07:59:10;100712.41;;;1.03;100.00
5883;BME280;2967;51.488;6.618;2022-12-10T08:04:13;100720.44;;;1.26;100.00
5883;BME280;2967;51.488;6.618;2022-12-10T08:09:17;100682.81;;;1.06;100.00
5883;BME280;2967;51.488;6.618;2022-12-10T08:14:20;100724.47;;;1.07;100.00
5883;BME280;2967;51.488;6.618;2022-12-10T08:19:22;100743.97;;;1.23;100.00
5883;BME280;2967;51.488;6.618;2022-12-10T08:24:33;100737.41;;;1.09;100.00
5883;BME280;2967;51.488;6.618;2022-12-10T08:29:35;100717.59;;;1.03;100.00
5883;BME280;2967;51.488;6.618;2022-12-10T08:34:38;100751.72;;;1.26;100.00
5883;BME280;2967;51.488;6.618;2022-12-10T08:39:42;100750.88;;;1.24;100.00
5883;BME280;2967;51.488;6.618;2022-12-10T08:44:45;100763.19;;;0.87;100.00
5883;BME280;2967;51.488;6.618;2022-12-10T08:49:49;100774.13;;;1.00;100.00
5883;BME280;2967;51.488;6.618;2022-12-10T08:54:55;100778.00;;;1.17;100.00
5883;BME280;2967;51.488;6.618;2022-12-10T08:59:57;100764.09;;;1.18;100.00
5883;BME280;2967;51.488;6.618;2022-12-10T09:05:01;100786.13;;;1.37;100.00
5883;BME280;2967;51.488;6.618;2022-12-10T09:10:06;100798.25;;;1.38;100.00
5883;BME280;2967;51.488;6.618;2022-12-10T09:15:09;100797.78;;;1.55;100.00
5883;BME280;2967;51.488;6.618;2022-12-10T09:20:12;100801.19;;;1.57;100.00
5883;BME280;2967;51.488;6.618;2022-12-10T09:25:16;100805.84;;;1.46;100.00
5883;BME280;2967;51.488;6.618;2022-12-10T09:30:22;100813.59;;;1.49;100.00
5883;BME280;2967;51.488;6.618;2022-12-10T09:35:24;100810.81;;;1.55;100.00
5883;BME280;2967;51.488;6.618;2022-12-10T09:40:36;100823.81;;;1.56;100.00
5883;BME280;2967;51.488;6.618;2022-12-10T09:45:46;100813.47;;;1.53;100.00
5883;BME280;2967;51.488;6.618;2022-12-10T09:51:01;100821.28;;;1.53;100.00
5883;BME280;2967;51.488;6.618;2022-12-10T09:56:17;100816.13;;;1.52;100.00
5883;BME280;2967;51.488;6.618;2022-12-10T10:01:24;100813.84;;;1.70;100.00
5883;BME280;2967;51.488;6.618;2022-12-10T10:06:30;100810.78;;;1.24;100.00
5883;BME280;2967;51.488;6.618;2022-12-10T10:11:35;100798.25;;;1.38;100.00
5883;BME280;2967;51.488;6.618;2022-12-10T10:16:43;100802.09;;;1.56;100.00
5883;BME280;2967;51.488;6.618;2022-12-10T10:21:49;100788.66;;;1.71;100.00
5883;BME280;2967;51.488;6.618;2022-12-10T10:26:57;100801.81;;;1.66;100.00
5883;BME280;2967;51.488;6.618;2022-12-10T10:32:16;100793.56;;;1.80;100.00
5883;BME280;2967;51.488;6.618;2022-12-10T10:37:21;100812.53;;;1.86;100.00
5883;BME280;2967;51.488;6.618;2022-12-10T10:42:34;100809.00;;;1.87;100.00
5883;BME280;2967;51.488;6.618;2022-12-10T10:47:38;100807.56;;;1.77;100.00
5883;BME280;2967;51.488;6.618;2022-12-10T10:52:41;100809.78;;;1.60;100.00
5883;BME280;2967;51.488;6.618;2022-12-10T10:57:45;100800.44;;;1.53;100.00
5883;BME280;2967;51.488;6.618;2022-12-10T11:02:48;100784.63;;;1.88;100.00
5883;BME280;2967;51.488;6.618;2022-12-10T11:07:57;100794.56;;;1.76;100.00
5883;BME280;2967;51.488;6.618;2022-12-10T11:13:06;100786.28;;;1.01;100.00
5883;BME280;2967;51.488;6.618;2022-12-10T11:18:24;100796.00;;;1.26;100.00
5883;BME280;2967;51.488;6.618;2022-12-10T11:23:28;100790.34;;;1.11;100.00
5883;BME280;2967;51.488;6.618;2022-12-10T11:28:44;100769.53;;;1.70;100.00
5883;BME280;2967;51.488;6.618;2022-12-10T11:33:56;100783.38;;;2.01;100.00
5883;BME280;2967;51.488;6.618;2022-12-10T11:39:08;100785.84;;;2.06;100.00
5883;BME280;2967;51.488;6.618;2022-12-10T11:44:23;100779.16;;;1.97;100.00
5883;BME280;2967;51.488;6.618;2022-12-10T11:49:35;100783.31;;;2.03;100.00
5883;BME280;2967;51.488;6.618;2022-12-10T11:54:53;100789.41;;;2.31;100.00
5883;BME280;2967;51.488;6.618;2022-12-10T12:00:18;100744.00;;;1.81;100.00
5883;BME280;2967;51.488;6.618;2022-12-10T12:05:36;100794.53;;;2.06;100.00
5883;BME280;2967;51.488;6.618;2022-12-10T12:16:23;100782.41;;;2.31;100.00
5883;BME280;2967;51.488;6.618;2022-12-10T12:21:28;100786.59;;;2.37;100.00
5883;BME280;2967;51.488;6.618;2022-12-10T12:26:35;100784.84;;;2.37;100.00
5883;BME280;2967;51.488;6.618;2022-12-10T12:31:43;100794.38;;;2.38;100.00
5883;BME280;2967;51.488;6.618;2022-12-10T12:36:48;100774.56;;;2.33;100.00
5883;BME280;2967;51.488;6.618;2022-12-10T12:41:57;100770.28;;;2.30;100.00
5883;BME280;2967;51.488;6.618;2022-12-10T12:47:18;100791.78;;;2.38;100.00
5883;BME280;2967;51.488;6.618;2022-12-10T12:52:28;100783.22;;;2.33;100.00
5883;BME280;2967;51.488;6.618;2022-12-10T12:57:41;100784.63;;;2.43;100.00
5883;BME280;2967;51.488;6.618;2022-12-10T13:02:58;100788.03;;;2.45;100.00
5883;BME280;2967;51.488;6.618;2022-12-10T13:08:23;100798.91;;;2.59;100.00
5883;BME280;2967;51.488;6.618;2022-12-10T13:13:33;100792.69;;;2.37;100.00
5883;BME280;2967;51.488;6.618;2022-12-10T13:18:38;100792.31;;;2.47;100.00
5883;BME280;2967;51.488;6.618;2022-12-10T13:23:48;100794.00;;;2.50;100.00
5883;BME280;2967;51.488;6.618;2022-12-10T13:28:57;100791.78;;;2.38;100.00
5883;BME280;2967;51.488;6.618;2022-12-10T13:34:30;100774.94;;;2.21;100.00
5883;BME280;2967;51.488;6.618;2022-12-10T13:39:35;100805.13;;;2.55;100.00
5883;BME280;2967;51.488;6.618;2022-12-10T13:44:48;100805.09;;;2.56;100.00
5883;BME280;2967;51.488;6.618;2022-12-10T13:49:55;100799.25;;;2.48;100.00
5883;BME280;2967;51.488;6.618;2022-12-10T13:55:07;100814.06;;;2.48;100.00
5883;BME280;2967;51.488;6.618;2022-12-10T14:00:23;100775.22;;;2.39;100.00
5883;BME280;2967;51.488;6.618;2022-12-10T14:05:52;100821.03;;;1.91;100.00
5883;BME280;2967;51.488;6.618;2022-12-10T14:10:58;100827.66;;;2.32;100.00
5883;BME280;2967;51.488;6.618;2022-12-10T14:16:02;100820.34;;;2.43;100.00
5883;BME280;2967;51.488;6.618;2022-12-10T14:21:12;100834.84;;;2.51;100.00
5883;BME280;2967;51.488;6.618;2022-12-10T14:26:18;100831.53;;;2.46;100.00
5883;BME280;2967;51.488;6.618;2022-12-10T14:31:26;100827.38;;;2.41;100.00
5883;BME280;2967;51.488;6.618;2022-12-10T14:36:35;100840.19;;;2.48;100.00
5883;BME280;2967;51.488;6.618;2022-12-10T14:41:40;100833.13;;;2.50;100.00
5883;BME280;2967;51.488;6.618;2022-12-10T14:46:43;100836.84;;;2.43;100.00
5883;BME280;2967;51.488;6.618;2022-12-10T14:51:48;100841.09;;;2.47;100.00
5883;BME280;2967;51.488;6.618;2022-12-10T14:56:52;100839.44;;;2.43;100.00
5883;BME280;2967;51.488;6.618;2022-12-10T15:01:59;100837.28;;;2.57;100.00
5883;BME280;2967;51.488;6.618;2022-12-10T15:07:05;100834.94;;;2.48;100.00
5883;BME280;2967;51.488;6.618;2022-12-10T15:12:36;100847.78;;;2.54;100.00
5883;BME280;2967;51.488;6.618;2022-12-10T15:17:54;100844.44;;;2.51;100.00
5883;BME280;2967;51.488;6.618;2022-12-10T15:23:17;100845.44;;;2.47;100.00
5883;BME280;2967;51.488;6.618;2022-12-10T15:28:25;100851.41;;;2.50;100.00
5883;BME280;2967;51.488;6.618;2022-12-10T15:33:31;100840.25;;;2.45;100.00
5883;BME280;2967;51.488;6.618;2022-12-10T15:38:37;100847.00;;;2.52;100.00
5883;BME280;2967;51.488;6.618;2022-12-10T15:43:51;100854.81;;;2.52;100.00
5883;BME280;2967;51.488;6.618;2022-12-10T15:48:54;100858.09;;;2.58;100.00
5883;BME280;2967;51.488;6.618;2022-12-10T15:53:58;100864.19;;;2.59;100.00
5883;BME280;2967;51.488;6.618;2022-12-10T15:59:00;100870.22;;;2.61;100.00
5883;BME280;2967;51.488;6.618;2022-12-10T16:04:03;100860.91;;;2.53;100.00
5883;BME280;2967;51.488;6.618;2022-12-10T16:09:08;100866.91;;;2.56;100.00
5883;BME280;2967;51.488;6.618;2022-12-10T16:14:11;100869.50;;;2.56;100.00
5883;BME280;2967;51.488;6.618;2022-12-10T16:19:14;100868.50;;;2.60;100.00
5883;BME280;2967;51.488;6.618;2022-12-10T16:24:19;100868.31;;;2.66;100.00
5883;BME280;2967;51.488;6.618;2022-12-10T16:29:21;100862.22;;;2.65;100.00
5883;BME280;2967;51.488;6.618;2022-12-10T16:34:24;100870.25;;;2.59;100.00
5883;BME280;2967;51.488;6.618;2022-12-10T16:39:28;100874.91;;;2.50;100.00
5883;BME280;2967;51.488;6.618;2022-12-10T16:44:32;100875.56;;;2.56;100.00
5883;BME280;2967;51.488;6.618;2022-12-10T16:49:34;100876.16;;;2.66;100.00
5883;BME280;2967;51.488;6.618;2022-12-10T16:54:39;100867.56;;;2.62;100.00
5883;BME280;2967;51.488;6.618;2022-12-10T16:59:41;100864.66;;;2.71;100.00
5883;BME280;2967;51.488;6.618;2022-12-10T17:04:44;100879.31;;;2.75;100.00
5883;BME280;2967;51.488;6.618;2022-12-10T17:09:48;100870.88;;;2.67;100.00
5883;BME280;2967;51.488;6.618;2022-12-10T17:14:50;100884.69;;;2.71;100.00
5883;BME280;2967;51.488;6.618;2022-12-10T17:19:53;100889.00;;;2.72;100.00
5883;BME280;2967;51.488;6.618;2022-12-10T17:24:57;100889.63;;;2.53;100.00
5883;BME280;2967;51.488;6.618;2022-12-10T17:29:59;100887.44;;;2.66;100.00
5883;BME280;2967;51.488;6.618;2022-12-10T17:35:03;100876.34;;;2.60;100.00
5883;BME280;2967;51.488;6.618;2022-12-10T17:40:13;100892.47;;;2.72;100.00
5883;BME280;2967;51.488;6.618;2022-12-10T17:45:17;100888.09;;;1.57;100.00
5883;BME280;2967;51.488;6.618;2022-12-10T17:50:26;100896.34;;;2.32;100.00
5883;BME280;2967;51.488;6.618;2022-12-10T17:55:34;100898.50;;;2.47;100.00
5883;BME280;2967;51.488;6.618;2022-12-10T18:00:38;100899.88;;;2.30;100.00
5883;BME280;2967;51.488;6.618;2022-12-10T18:05:41;100906.97;;;2.26;100.00
5883;BME280;2967;51.488;6.618;2022-12-10T18:10:45;100916.19;;;2.38;100.00
5883;BME280;2967;51.488;6.618;2022-12-10T18:15:48;100916.44;;;2.29;100.00
5883;BME280;2967;51.488;6.618;2022-12-10T18:20:50;100819.91;;;2.00;100.00
5883;BME280;2967;51.488;6.618;2022-12-10T18:25:54;100921.47;;;2.06;100.00
5883;BME280;2967;51.488;6.618;2022-12-10T18:30:57;100921.94;;;1.89;100.00
5883;BME280;2967;51.488;6.618;2022-12-10T18:36:04;100913.59;;;1.77;100.00
5883;BME280;2967;51.488;6.618;2022-12-10T18:41:10;100920.34;;;2.14;100.00
5883;BME280;2967;51.488;6.618;2022-12-10T18:46:15;100888.19;;;1.85;100.00
5883;BME280;2967;51.488;6.618;2022-12-10T18:51:18;100928.88;;;2.21;100.00
5883;BME280;2967;51.488;6.618;2022-12-10T18:56:25;100913.53;;;2.10;100.00
5883;BME280;2967;51.488;6.618;2022-12-10T19:01:31;100890.34;;;2.00;100.00
5883;BME280;2967;51.488;6.618;2022-12-10T19:06:34;100933.66;;;2.36;100.00
5883;BME280;2967;51.488;6.618;2022-12-10T19:11:38;100929.34;;;2.33;100.00
5883;BME280;2967;51.488;6.618;2022-12-10T19:16:41;100932.59;;;2.41;100.00
5883;BME280;2967;51.488;6.618;2022-12-10T19:21:45;100933.50;;;2.40;100.00
5883;BME280;2967;51.488;6.618;2022-12-10T19:26:49;100933.25;;;2.49;100.00
5883;BME280;2967;51.488;6.618;2022-12-10T19:31:52;100924.00;;;1.78;100.00
5883;BME280;2967;51.488;6.618;2022-12-10T19:36:55;100919.31;;;2.20;100.00
5883;BME280;2967;51.488;6.618;2022-12-10T19:41:59;100913.91;;;1.97;100.00
5883;BME280;2967;51.488;6.618;2022-12-10T19:47:02;100930.03;;;2.11;100.00
5883;BME280;2967;51.488;6.618;2022-12-10T19:52:04;100918.09;;;2.02;100.00
5883;BME280;2967;51.488;6.618;2022-12-10T19:57:10;100923.66;;;1.90;100.00
5883;BME280;2967;51.488;6.618;2022-12-10T20:02:13;100920.31;;;1.85;100.00
5883;BME280;2967;51.488;6.618;2022-12-10T20:07:15;100921.06;;;1.58;100.00
5883;BME280;2967;51.488;6.618;2022-12-10T20:12:20;100903.50;;;1.95;100.00
5883;BME280;2967;51.488;6.618;2022-12-10T20:17:25;100917.28;;;2.00;100.00
5883;BME280;2967;51.488;6.618;2022-12-10T20:22:29;100935.66;;;1.96;100.00
5883;BME280;2967;51.488;6.618;2022-12-10T20:27:33;100895.38;;;1.43;100.00
5883;BME280;2967;51.488;6.618;2022-12-10T20:32:36;100931.16;;;1.38;100.00
5883;BME280;2967;51.488;6.618;2022-12-10T20:37:39;100920.25;;;1.88;100.00
5883;BME280;2967;51.488;6.618;2022-12-10T20:42:44;100935.25;;;2.11;100.00
5883;BME280;2967;51.488;6.618;2022-12-10T20:47:47;100934.13;;;2.19;100.00
5883;BME280;2967;51.488;6.618;2022-12-10T20:52:50;100894.97;;;1.90;100.00
5883;BME280;2967;51.488;6.618;2022-12-10T20:57:54;100917.13;;;2.06;100.00
5883;BME280;2967;51.488;6.618;2022-12-10T21:02:56;100924.06;;;2.07;100.00
5883;BME280;2967;51.488;6.618;2022-12-10T21:07:59;100921.66;;;1.68;100.00
5883;BME280;2967;51.488;6.618;2022-12-10T21:13:09;100914.97;;;1.59;100.00
5883;BME280;2967;51.488;6.618;2022-12-10T21:18:12;100927.63;;;1.73;100.00
5883;BME280;2967;51.488;6.618;2022-12-10T21:23:17;100929.16;;;1.80;100.00
5883;BME280;2967;51.488;6.618;2022-12-10T21:28:22;100895.81;;;1.60;100.00
5883;BME280;2967;51.488;6.618;2022-12-10T21:33:25;100908.94;;;1.88;100.00
5883;BME280;2967;51.488;6.618;2022-12-10T21:38:28;100897.00;;;1.81;100.00
5883;BME280;2967;51.488;6.618;2022-12-10T21:43:33;100922.91;;;2.17;100.00
5883;BME280;2967;51.488;6.618;2022-12-10T21:48:36;100920.78;;;1.99;100.00
5883;BME280;2967;51.488;6.618;2022-12-10T21:53:38;100912.72;;;2.08;100.00
5883;BME280;2967;51.488;6.618;2022-12-10T21:58:42;100912.25;;;2.23;100.00
5883;BME280;2967;51.488;6.618;2022-12-10T22:03:45;100891.75;;;2.11;100.00
5883;BME280;2967;51.488;6.618;2022-12-10T22:08:48;100902.69;;;1.93;100.00
5883;BME280;2967;51.488;6.618;2022-12-10T22:13:52;100908.34;;;2.09;100.00
5883;BME280;2967;51.488;6.618;2022-12-10T22:18:55;100915.19;;;1.82;100.00
5883;BME280;2967;51.488;6.618;2022-12-10T22:23:58;100926.03;;;1.67;100.00
5883;BME280;2967;51.488;6.618;2022-12-10T22:29:02;100917.69;;;1.85;100.00
5883;BME280;2967;51.488;6.618;2022-12-10T22:34:05;100916.47;;;1.98;100.00
5883;BME280;2967;51.488;6.618;2022-12-10T22:39:08;100925.13;;;2.00;100.00
5883;BME280;2967;51.488;6.618;2022-12-10T22:44:15;100932.97;;;1.99;100.00
5883;BME280;2967;51.488;6.618;2022-12-10T22:49:19;100927.38;;;2.12;100.00
5883;BME280;2967;51.488;6.618;2022-12-10T22:54:23;100931.91;;;2.36;100.00
5883;BME280;2967;51.488;6.618;2022-12-10T22:59:28;100931.31;;;2.27;100.00
5883;BME280;2967;51.488;6.618;2022-12-10T23:04:30;100837.72;;;1.55;100.00
5883;BME280;2967;51.488;6.618;2022-12-10T23:09:33;100926.81;;;2.01;100.00
5883;BME280;2967;51.488;6.618;2022-12-10T23:14:37;100908.06;;;1.57;100.00
5883;BME280;2967;51.488;6.618;2022-12-10T23:19:40;100930.59;;;1.91;100.00
5883;BME280;2967;51.488;6.618;2022-12-10T23:24:43;100928.78;;;2.24;100.00
5883;BME280;2967;51.488;6.618;2022-12-10T23:29:47;100927.75;;;2.29;100.00
5883;BME280;2967;51.488;6.618;2022-12-10T23:34:49;100923.47;;;2.27;100.00
5883;BME280;2967;51.488;6.618;2022-12-10T23:39:52;100894.34;;;2.11;100.00
5883;BME280;2967;51.488;6.618;2022-12-10T23:44:57;100922.81;;;2.19;100.00
5883;BME280;2967;51.488;6.618;2022-12-10T23:49:59;100920.88;;;2.27;100.00
5883;BME280;2967;51.488;6.618;2022-12-10T23:55:04;100916.25;;;2.06;100.00
